Terminal Aerodrome Forecast
Issued by NWS Atlanta, GA

Home | Current Version | Previous Version | Text Only | Print | Product List | Glossary On
Versions: 1 2 3 4 5 6 7 8 9 10 11 12 13 14 15
041
FTUS42 KFFC 280520
TAFMCN
TAF
KMCN 280520Z 2806/2906 24008KT P6SM SCT250
     FM281200 26006KT P6SM BKN012
     FM281700 27008KT P6SM BKN040
     FM282000 27007KT P6SM SCT060 PROB30 2821/2901 5SM TSRA BKN035CB
     FM290100 27002KT P6SM SCT250=

USA.gov is the U.S. government's official web portal to all federal, state and local government web resources and services.